Stormwatcher's Retreat Logo




                  Temp     Hi    Low   Out    Dew  Wind  Wind   Wind    Hi    Hi   Wind   Heat    THW   THSW                Rain  Solar   Solar Hi Solar   UV    UV    Hi     Heat    Cool    In     In    In     In     In   In Air          Wind  Wind    ISS   Arc.
  Date    Time     Out   Temp   Temp   Hum    Pt. Speed   Dir    Run Speed   Dir  Chill  Index  Index  Index   Bar    Rain  Rate   Rad.  Energy    Rad.  Index  Dose   UV     D-D     D-D    Temp   Hum    Dew   Heat    EMC Density     ET   Samp   Tx   Recept  Int.
------------------------------------------------------------------------------------------------------------------------------------------------------------------------------------------------------------------------------------------------------------------------
 8/13/20 12:10a   53.8   54.3   53.8    86   49.7   2.0   ENE   0.33   5.0    NE   53.8   53.7   53.7   50.6  30.111  0.00  0.00     0     0.00      0     0.0  0.00   0.0   0.078   0.000   71.8    55   54.8   71.2  10.11  .0741    0.000   203    7    100.0   10 
 8/13/20 12:20a   53.5   53.8   53.5    86   49.4   2.0   ENE   0.33   4.0    NE   53.5   53.4   53.4   50.3  30.110  0.00  0.00     0     0.00      0     0.0  0.00   0.0   0.080   0.000   71.8    55   54.8   71.2  10.11  .0741    0.000   202    7    100.0   10 
 8/13/20 12:30a   53.0   53.5   53.0    86   48.9   2.0   ENE   0.33   4.0   NNE   53.0   52.9   52.9   49.7  30.111  0.00  0.00     0     0.00      0     0.0  0.00   0.0   0.083   0.000   71.8    55   54.8   71.2  10.11  .0741    0.000   204    7    100.0   10 
 8/13/20 12:40a   52.5   53.0   52.5    87   48.7   2.0    NE   0.33   4.0   ENE   52.5   52.5   52.5   49.3  30.111  0.00  0.00     0     0.00      0     0.0  0.00   0.0   0.087   0.000   71.7    55   54.7   71.0  10.12  .0741    0.000   201    7    100.0   10 
 8/13/20 12:50a   52.1   52.5   52.0    88   48.7   2.0    NE   0.33   4.0    NE   52.1   52.2   52.2   49.0  30.112  0.00  0.00     0     0.00      0     0.0  0.00   0.0   0.090   0.000   71.7    55   54.7   71.0  10.12  .0741    0.000   203    7    100.0   10 
 8/13/20  1:00a   51.7   52.1   51.7    88   48.3   3.0   ENE   0.50   5.0   ENE   51.6   51.8   51.7   48.5  30.111  0.00  0.00     0     0.00      0     0.0  0.00   0.0   0.092   0.000   71.6    55   54.6   70.9  10.12  .0741    0.001   201    7    100.0   10 
 8/13/20  1:10a   51.5   51.7   51.5    88   48.1   1.0   ENE   0.17   3.0   ENE   51.5   51.6   51.6   48.4  30.115  0.00  0.00     0     0.00      0     0.0  0.00   0.0   0.094   0.000   71.6    55   54.6   70.9  10.12  .0741    0.000   202    7    100.0   10 
 8/13/20  1:20a   51.5   51.6   51.5    89   48.4   0.0   ENE   0.00   3.0   ENE   51.5   51.7   51.7   48.5  30.116  0.00  0.00     0     0.00      0     0.0  0.00   0.0   0.094   0.000   71.6    55   54.6   70.9  10.12  .0741    0.000   203    7    100.0   10 
 8/13/20  1:30a   51.4   51.6   51.4    88   48.0   1.0   ENE   0.17   2.0   ENE   51.4   51.5   51.5   48.3  30.118  0.00  0.00     0     0.00      0     0.0  0.00   0.0   0.094   0.000   71.5    55   54.5   70.8  10.12  .0741    0.000   203    7    100.0   10 
 8/13/20  1:40a   51.1   51.4   51.1    88   47.7   1.0   ENE   0.17   2.0   ENE   51.1   51.2   51.2   48.0  30.117  0.00  0.00     0     0.00      0     0.0  0.00   0.0   0.097   0.000   71.5    55   54.5   70.8  10.12  .0741    0.000   204    7    100.0   10 
 8/13/20  1:50a   50.9   51.1   50.9    89   47.8   1.0   ENE   0.17   2.0   ENE   50.9   51.1   51.1   47.9  30.115  0.00  0.00     0     0.00      0     0.0  0.00   0.0   0.098   0.000   71.4    55   54.4   70.6  10.12  .0741    0.000   203    7    100.0   10 
 8/13/20  2:00a   50.8   51.0   50.8    89   47.7   0.0   ENE   0.00   1.0   ENE   50.8   51.0   51.0   47.8  30.115  0.00  0.00     0     0.00      0     0.0  0.00   0.0   0.099   0.000   71.4    55   54.4   70.6  10.12  .0741    0.000   201    7    100.0   10 
 8/13/20  2:10a   50.6   50.8   50.5    89   47.5   0.0   ENE   0.00   1.0   ENE   50.6   50.8   50.8   47.6  30.115  0.00  0.00     0     0.00      0     0.0  0.00   0.0   0.100   0.000   71.4    55   54.4   70.6  10.12  .0741    0.000   203    7    100.0   10 
 8/13/20  2:20a   50.5   50.6   50.4    89   47.4   0.0   ---   0.00   0.0   ---   50.5   50.7   50.7   47.5  30.116  0.00  0.00     0     0.00      0     0.0  0.00   0.0   0.101   0.000   71.3    55   54.3   70.5  10.12  .0742    0.000   202    7    100.0   10 
 8/13/20  2:30a   50.5   50.5   50.4    90   47.7   0.0   ENE   0.00   1.0   ENE   50.5   50.8   50.8   47.6  30.112  0.00  0.00     0     0.00      0     0.0  0.00   0.0   0.101   0.000   71.2    55   54.2   70.3  10.13  .0742    0.000   201    7    100.0   10 
 8/13/20  2:40a   50.1   50.5   50.0    90   47.3   0.0   ENE   0.00   2.0   ENE   50.1   50.4   50.4   47.2  30.115  0.00  0.00     0     0.00      0     0.0  0.00   0.0   0.103   0.000   71.2    55   54.2   70.3  10.13  .0742    0.000   204    7    100.0   10 
 8/13/20  2:50a   50.0   50.1   50.0    91   47.5   0.0   ENE   0.00   1.0   ENE   50.0   50.3   50.3   47.1  30.116  0.00  0.00     0     0.00      0     0.0  0.00   0.0   0.104   0.000   71.1    55   54.1   70.1  10.13  .0742    0.000   203    7    100.0   10 
 8/13/20  3:00a   49.8   50.0   49.8    91   47.3   0.0   ENE   0.00   2.0   ENE   49.8   50.1   50.1   46.9  30.117  0.00  0.00     0     0.00      0     0.0  0.00   0.0   0.106   0.000   71.1    55   54.1   70.1  10.13  .0742    0.000   202    7    100.0   10 
 8/13/20  3:10a   49.5   49.9   49.5    90   46.7   1.0   ENE   0.17   2.0   ENE   49.5   49.8   49.8   46.5  30.121  0.00  0.00     0     0.00      0     0.0  0.00   0.0   0.108   0.000   71.0    55   54.0   70.0  10.13  .0742    0.000   203    7    100.0   10 
 8/13/20  3:20a   49.3   49.5   49.2    91   46.8   1.0   ENE   0.17   2.0   ENE   49.3   49.6   49.6   46.3  30.120  0.00  0.00     0     0.00      0     0.0  0.00   0.0   0.109   0.000   71.0    55   54.0   70.0  10.13  .0742    0.000   202    7    100.0   10 
 8/13/20  3:30a   49.1   49.3   49.1    91   46.6   0.0   ENE   0.00   1.0   ENE   49.1   49.4   49.4   46.1  30.118  0.00  0.00     0     0.00      0     0.0  0.00   0.0   0.110   0.000   70.9    55   53.9   69.9  10.13  .0742    0.000   203    7    100.0   10 
 8/13/20  3:40a   49.4   49.4   49.1    92   47.2   0.0   ENE   0.00   1.0   ENE   49.4   49.8   49.8   46.6  30.118  0.00  0.00     0     0.00      0     0.0  0.00   0.0   0.108   0.000   70.9    55   53.9   69.9  10.13  .0742    0.000   203    7    100.0   10 
 8/13/20  3:50a   49.5   49.6   49.4    92   47.3   0.0   ENE   0.00   2.0   ENE   49.5   49.9   49.9   46.7  30.119  0.00  0.00     0     0.00      0     0.0  0.00   0.0   0.108   0.000   70.8    55   53.8   69.7  10.13  .0743    0.000   204    7    100.0   10 
 8/13/20  4:00a   49.2   49.5   49.2    91   46.7   0.0   ENE   0.00   2.0   ENE   49.2   49.5   49.5   46.2  30.121  0.00  0.00     0     0.00      0     0.0  0.00   0.0   0.110   0.000   70.8    55   53.8   69.7  10.13  .0743    0.000   204    7    100.0   10 
 8/13/20  4:10a   49.0   49.2   49.0    92   46.8   0.0   ENE   0.00   1.0   ENE   49.0   49.4   49.4   46.1  30.120  0.00  0.00     0     0.00      0     0.0  0.00   0.0   0.111   0.000   70.7    55   53.7   69.6  10.14  .0743    0.000   203    7    100.0   10 
 8/13/20  4:20a   49.0   49.1   48.9    92   46.8   0.0   ---   0.00   0.0   ---   49.0   49.4   49.4   46.1  30.121  0.00  0.00     0     0.00      0     0.0  0.00   0.0   0.111   0.000   70.7    55   53.7   69.6  10.14  .0743    0.000   203    7    100.0   10 
 8/13/20  4:30a   49.0   49.1   49.0    92   46.8   0.0   ---   0.00   0.0   ---   49.0   49.4   49.4   46.1  30.118  0.00  0.00     0     0.00      0     0.0  0.00   0.0   0.111   0.000   70.6    55   53.6   69.5  10.14  .0743    0.000   203    7    100.0   10 
 8/13/20  4:40a   48.9   49.0   48.9    92   46.7   0.0   ---   0.00   0.0   ---   48.9   49.3   49.3   46.0  30.115  0.00  0.00     0     0.00      0     0.0  0.00   0.0   0.112   0.000   70.5    55   53.6   69.3  10.14  .0743    0.000   202    7    100.0   10 
 8/13/20  4:50a   48.7   49.0   48.7    92   46.5   0.0   ENE   0.00   1.0   ENE   48.7   49.1   49.1   45.8  30.114  0.00  0.00     0     0.00      0     0.0  0.00   0.0   0.113   0.000   70.5    55   53.6   69.3  10.14  .0743    0.000   202    7    100.0   10 
 8/13/20  5:00a   48.8   48.8   48.7    93   46.9   0.0   ENE   0.00   1.0   ENE   48.8   49.2   49.2   45.9  30.119  0.00  0.00     0     0.00      0     0.0  0.00   0.0   0.113   0.000   70.4    55   53.5   69.2  10.14  .0743    0.000   202    7    100.0   10 
 8/13/20  5:10a   48.6   48.8   48.6    93   46.7   0.0   ---   0.00   0.0   ---   48.6   49.0   49.0   45.7  30.115  0.00  0.00     0     0.00      0     0.0  0.00   0.0   0.114   0.000   70.4    55   53.5   69.2  10.14  .0743    0.000   201    7    100.0   10 
 8/13/20  5:20a   48.5   48.7   48.4    92   46.3   0.0   ---   0.00   0.0   ---   48.5   48.8   48.8   45.5  30.116  0.00  0.00     0     0.00      0     0.0  0.00   0.0   0.115   0.000   70.3    55   53.4   69.1  10.14  .0743    0.000   202    7    100.0   10 
 8/13/20  5:30a   48.2   48.5   48.2    93   46.3   0.0   ---   0.00   0.0   ---   48.2   48.5   48.5   45.2  30.118  0.00  0.00     0     0.00      0     0.0  0.00   0.0   0.117   0.000   70.3    55   53.4   69.1  10.14  .0743    0.000   204    7    100.0   10 
 8/13/20  5:40a   48.3   48.4   48.2    93   46.4   0.0   ENE   0.00   1.0   ENE   48.3   48.6   48.6   45.3  30.123  0.00  0.00     0     0.00      0     0.0  0.00   0.0   0.116   0.000   70.2    55   53.3   69.0  10.15  .0744    0.000   201    7    100.0   10 
 8/13/20  5:50a   48.1   48.3   48.1    93   46.2   0.0   ---   0.00   0.0   ---   48.1   48.4   48.4   45.1  30.125  0.00  0.00     0     0.00      0     0.0  0.00   0.0   0.117   0.000   70.1    55   53.2   68.8  10.15  .0744    0.000   203    7    100.0   10 
 8/13/20  6:00a   48.2   48.2   48.1    93   46.3   0.0   ---   0.00   0.0   ---   48.2   48.5   48.5   45.2  30.125  0.00  0.00     0     0.00      0     0.0  0.00   0.0   0.117   0.000   70.1    55   53.2   68.8  10.15  .0744    0.000   202    7    100.0   10 
 8/13/20  6:10a   48.1   48.2   48.0    93   46.2   0.0   ---   0.00   0.0   ---   48.1   48.4   48.4   45.1  30.126  0.00  0.00     0     0.00      0     0.0  0.00   0.0   0.117   0.000   70.0    55   53.1   68.7  10.15  .0744    0.000   204    7    100.0   10 
 8/13/20  6:20a   48.1   48.3   48.1    93   46.2   0.0   ---   0.00   0.0   ---   48.1   48.4   48.4   45.2  30.129  0.00  0.00     2     0.03      5     0.0  0.00   0.0   0.117   0.000   69.9    55   53.0   68.6  10.15  .0744    0.000   202    7    100.0   10 
 8/13/20  6:30a   48.2   48.3   48.0    94   46.6   0.0   ---   0.00   0.0   ---   48.2   48.6   48.6   45.5  30.133  0.00  0.00     9     0.13     11     0.0  0.00   0.0   0.117   0.000   69.7    55   52.8   68.5  10.16  .0745    0.000   202    7    100.0   10 
 8/13/20  6:40a   48.3   48.3   48.2    93   46.4   0.0   ---   0.00   0.0   ---   48.3   48.6   48.6   45.6  30.137  0.00  0.00    14     0.20     16     0.0  0.00   0.0   0.116   0.000   69.7    55   52.8   68.5  10.16  .0745    0.000   204    7    100.0   10 
 8/13/20  6:50a   48.7   48.8   48.3    94   47.1   0.0   ---   0.00   0.0   ---   48.7   49.1   49.1   46.3  30.137  0.00  0.00    20     0.29     21     0.0  0.00   0.0   0.113   0.000   69.6    55   52.7   68.4  10.16  .0745    0.000   202    7    100.0   10 
 8/13/20  7:00a   48.7   48.9   48.7    93   46.8   0.0   ---   0.00   0.0   ---   48.7   49.1   49.1   48.2  30.141  0.00  0.00    25     0.36     26     0.0  0.00   0.0   0.113   0.000   69.6    55   52.7   68.4  10.16  .0745    0.000   204    7    100.0   10 
 8/13/20  7:10a   48.7   48.7   48.6    93   46.8   0.0   ---   0.00   0.0   ---   48.7   49.1   49.1   48.3  30.144  0.00  0.00    29     0.42     32     0.0  0.00   0.0   0.113   0.000   69.6    55   52.7   68.4  10.16  .0745    0.000   201    7    100.0   10 
 8/13/20  7:20a   48.7   48.7   48.6    93   46.8   0.0   ENE   0.00   2.0   ENE   48.7   49.1   49.1   48.5  30.145  0.00  0.00    33     0.47     35     0.0  0.00   0.0   0.113   0.000   69.6    55   52.7   68.4  10.16  .0745    0.000   202    7    100.0   10 
 8/13/20  7:30a   49.0   49.0   48.7    94   47.3   0.0   ENE   0.00   1.0   ENE   49.0   49.5   49.5   49.1  30.148  0.00  0.00    38     0.54     39     0.0  0.00   0.0   0.111   0.000   69.6    55   52.7   68.4  10.16  .0745    0.000   205    7    100.0   10 
 8/13/20  7:40a   49.2   49.3   49.0    93   47.3   0.0   ENE   0.00   2.0   ENE   49.2   49.6   49.6   49.2  30.148  0.00  0.00    41     0.59     42     0.0  0.00   0.0   0.110   0.000   69.7    55   52.8   68.5  10.16  .0745    0.000   202    7    100.0   10 
 8/13/20  7:50a   49.1   49.2   49.0    93   47.2   1.0   ENE   0.17   3.0   ENE   49.1   49.5   49.5   49.3  30.150  0.00  0.00    46     0.66     58     0.0  0.00   0.0   0.110   0.000   69.7    55   52.8   68.5  10.16  .0745    0.000   202    7    100.0   10 
 8/13/20  8:00a   49.7   49.7   49.0    93   47.8   0.0   ---   0.00   0.0   ---   49.7   50.1   50.1   54.7  30.149  0.00  0.00   178     2.55    213     0.2  0.01   0.5   0.106   0.000   69.7    55   52.8   68.5  10.16  .0745    0.001   200    7    100.0   10 
 8/13/20  8:10a   50.5   50.5   49.6    94   48.8   0.0   ENE   0.00   1.0   ENE   50.5   50.9   50.9   56.9  30.150  0.00  0.00   226     3.24    239     0.5  0.04   0.6   0.101   0.000   69.7    55   52.8   68.5  10.16  .0745    0.000   204    7    100.0   10 
 8/13/20  8:20a   52.0   52.0   50.5    94   50.3   1.0   ENE   0.17   4.0   ENE   52.0   52.3   52.3   58.9  30.152  0.00  0.00   252     3.61    265     0.7  0.05   0.7   0.090   0.000   69.8    55   52.9   68.6  10.15  .0745    0.000   203    7    100.0   10 
 8/13/20  8:30a   53.1   53.2   52.1    92   50.8   2.0   ENE   0.33   3.0   ENE   53.1   53.3   53.3   60.5  30.155  0.00  0.00   284     4.07    297     0.8  0.06   0.9   0.083   0.000   69.7    55   52.8   68.5  10.16  .0745    0.000   204    7    100.0   10 
 8/13/20  8:40a   53.7   53.7   53.1    90   50.8   2.0    NE   0.33   5.0   NNE   53.7   53.8   53.8   61.6  30.157  0.00  0.00   316     4.53    330     1.0  0.07   1.1   0.078   0.000   69.8    55   52.9   68.6  10.15  .0745    0.000   202    7    100.0   10 
 8/13/20  8:50a   54.0   54.1   53.7    88   50.5   3.0    NE   0.50   6.0    NE   54.0   54.0   54.0   62.3  30.158  0.00  0.00   351     5.03    366     1.2  0.09   1.3   0.076   0.000   69.8    55   52.9   68.6  10.15  .0745    0.000   204    7    100.0   10 
 8/13/20  9:00a   54.7   54.7   54.0    87   50.9   3.0   NNE   0.50   5.0   NNE   54.7   54.7   54.7   63.5  30.153  0.00  0.00   383     5.49    396     1.4  0.10   1.5   0.072   0.000   69.7    55   52.8   68.5  10.16  .0745    0.006   203    7    100.0   10 
 8/13/20  9:10a   55.5   55.5   54.6    87   51.7   3.0   NNE   0.50   6.0    NE   55.5   55.5   55.5   64.6  30.156  0.00  0.00   412     5.91    424     1.6  0.11   1.7   0.066   0.000   69.7    55   52.8   68.5  10.16  .0745    0.000   204    7    100.0   10 
 8/13/20  9:20a   55.7   55.9   55.5    85   51.3   5.0    NE   0.83   8.0   NNE   54.9   55.6   54.8   64.1  30.153  0.00  0.00   437     6.26    448     1.8  0.13   1.9   0.065   0.000   69.7    55   52.8   68.5  10.16  .0745    0.000   205    7    100.0   10 
 8/13/20  9:30a   55.6   55.8   55.5    85   51.2   6.0   NNE   1.00   8.0   NNE   54.3   55.5   54.2   63.8  30.155  0.00  0.00   464     6.65    478     2.1  0.15   2.2   0.065   0.000   69.6    54   52.2   68.3   9.97  .0746    0.000   203    7    100.0   10 
 8/13/20  9:40a   56.2   56.3   55.6    84   51.4   5.0   NNE   0.83   9.0   NNE   55.5   56.1   55.4   65.2  30.159  0.00  0.00   493     7.07    506     2.3  0.16   2.4   0.061   0.000   69.5    55   52.6   68.3  10.16  .0746    0.000   202    7    100.0   10 
 8/13/20  9:50a   57.1   57.1   56.2    82   51.7   5.0    NE   0.83  11.0    NE   56.5   56.9   56.3   66.3  30.159  0.00  0.00   521     7.47    533     2.6  0.19   2.7   0.055   0.000   69.6    55   52.7   68.4  10.16  .0746    0.000   201    7    100.0   10 
 8/13/20 10:00a   57.8   57.8   57.1    80   51.7   7.0   NNE   1.17  11.0     N   56.6   57.6   56.4   66.4  30.159  0.00  0.00   547     7.84    559     2.9  0.21   3.0   0.050   0.000   69.7    55   52.8   68.5  10.16  .0746    0.010   205    7    100.0   10 
 8/13/20 10:10a   57.7   57.9   57.7    79   51.2   7.0   NNE   1.17  11.0    NE   56.4   57.4   56.1   66.2  30.163  0.00  0.00   572     8.20    584     3.1  0.22   3.3   0.051   0.000   69.8    55   52.9   68.6  10.15  .0745    0.000   202    7    100.0   10 
 8/13/20 10:20a   58.2   58.2   57.7    79   51.7   6.0    NE   1.00  11.0     N   57.4   57.9   57.1   67.5  30.162  0.00  0.00   598     8.57    610     3.4  0.24   3.6   0.047   0.000   69.9    55   53.0   68.6  10.15  .0745    0.000   203    7    100.0   10 
 8/13/20 10:30a   58.9   58.9   58.2    77   51.7   8.0   NNE   1.33  14.0     N   57.2   58.5   56.8   66.8  30.163  0.00  0.00   623     8.93    633     3.7  0.26   3.9   0.042   0.000   69.9    55   53.0   68.6  10.15  .0745    0.000   203    7    100.0   10 
 8/13/20 10:40a   59.3   59.5   58.9    74   51.0   8.0   NNE   1.33  13.0   NNE   57.7   58.8   57.2   67.3  30.168  0.00  0.00   646     9.26    654     4.1  0.29   4.2   0.040   0.000   70.0    55   53.1   68.7  10.15  .0745    0.000   205    7    100.0   10 
 8/13/20 10:50a   58.9   59.2   58.8    74   50.6   9.0    NE   1.50  13.0   NNE   56.4   58.4   55.9   65.6  30.166  0.00  0.00   666     9.55    675     4.4  0.31   4.5   0.042   0.000   70.1    55   53.2   68.8  10.15  .0745    0.000   203    7    100.0   10 
 8/13/20 11:00a   59.6   59.6   58.9    72   50.6   8.0    NE   1.33  14.0    NE   58.0   59.0   57.4   67.5  30.170  0.00  0.00   688     9.86    698     4.7  0.34   4.8   0.038   0.000   70.2    55   53.3   69.0  10.15  .0745    0.014   204    7    100.0   10 
 8/13/20 11:10a   58.9   59.6   58.8    71   49.5  10.0   ENE   1.67  18.0   ENE   55.7   58.2   55.0   64.4  30.166  0.00  0.00   710    10.18    717     4.9  0.35   5.1   0.042   0.000   70.2    55   53.3   69.0  10.15  .0745    0.000   203    7    100.0   10 
 8/13/20 11:20a   59.8   59.8   58.9    70   50.0   9.0    NE   1.50  18.0   ENE   57.5   59.2   56.9   66.8  30.168  0.00  0.00   727    10.42    735     5.2  0.37   5.3   0.036   0.000   70.3    55   53.4   69.1  10.14  .0745    0.000   205    7    100.0   10 
 8/13/20 11:30a   59.6   59.8   59.6    71   50.2   9.0    NE   1.50  18.0    NE   57.2   59.0   56.6   66.5  30.170  0.00  0.00   743    10.65    751     5.5  0.39   5.6   0.038   0.000   70.4    55   53.5   69.2  10.14  .0745    0.000   204    7    100.0   10 
 8/13/20 11:40a   59.5   59.6   59.3    72   50.5  10.0   ENE   1.67  16.0   ENE   56.4   58.9   55.8   65.4  30.174  0.00  0.00   760    10.89    768     5.7  0.41   5.8   0.038   0.000   70.4    55   53.5   69.2  10.14  .0745    0.000   203    7    100.0   10 
 8/13/20 11:50a   58.6   59.5   58.6    73   50.0  10.0    NE   1.67  15.0   NNE   55.3   58.0   54.7   64.3  30.175  0.00  0.00   775    11.11    780     5.9  0.42   6.0   0.044   0.000   70.5    55   53.6   69.3  10.14  .0745    0.000   204    7    100.0   10 
 8/13/20 12:00p   59.7   59.7   58.6    73   51.0  10.0   ENE   1.67  17.0   NNE   56.6   59.2   56.1   65.8  30.172  0.00  0.00   789    11.31    795     6.2  0.44   6.3   0.037   0.000   70.5    55   53.6   69.3  10.14  .0744    0.017   204    7    100.0   10 
 8/13/20 12:10p   60.3   60.3   59.7    72   51.2  10.0   ENE   1.67  16.0     E   57.3   59.8   56.8   66.5  30.170  0.00  0.00   802    11.50    809     6.4  0.46   6.5   0.033   0.000   70.5    55   53.6   69.3  10.14  .0744    0.000   204    7    100.0   10 
 8/13/20 12:20p   60.0   60.4   60.0    72   50.9  10.0    NE   1.67  18.0    NE   57.0   59.5   56.5   66.2  30.170  0.00  0.00   815    11.68    819     6.6  0.47   6.7   0.035   0.000   70.6    55   53.6   69.5  10.14  .0744    0.000   202    7    100.0   10 
 8/13/20 12:30p   60.2   60.4   59.9    73   51.5  11.0    NE   1.83  18.0     N   56.5   59.7   56.0   65.3  30.173  0.00  0.00   824    11.81    828     6.8  0.49   6.8   0.033   0.000   70.7    55   53.7   69.6  10.14  .0744    0.000   203    7    100.0   10 
 8/13/20 12:40p   59.7   60.2   59.6    74   51.4  11.0   NNE   1.83  18.0   NNE   56.0   59.2   55.5   64.8  30.171  0.00  0.00   831    11.91    835     6.9  0.49   6.9   0.037   0.000   70.8    55   53.8   69.7  10.13  .0744    0.000   203    7    100.0   10 
 8/13/20 12:50p   60.8   60.8   59.8    73   52.1  11.0   ENE   1.83  19.0    NE   57.3   60.4   56.9   66.3  30.171  0.00  0.00   840    12.04    844     7.0  0.50   7.1   0.029   0.000   70.8    55   53.8   69.7  10.13  .0744    0.000   202    7    100.0   10 
 8/13/20  1:00p   60.9   61.0   60.8    74   52.6  13.0   ENE   2.17  20.0    NE   56.3   60.5   55.9   64.7  30.170  0.00  0.00   841    12.06    849     7.1  0.51   7.2   0.028   0.000   70.9    55   53.9   69.9  10.13  .0744    0.019   203    7    100.0   10 
 8/13/20  1:10p   61.1   61.1   60.9    74   52.7  13.0    NE   2.17  20.0    NE   56.5   60.7   56.1   64.9  30.171  0.00  0.00   832    11.93    846     7.0  0.50   7.2   0.027   0.000   70.9    55   53.9   69.9  10.13  .0744    0.000   204    7    100.0   10 
 8/13/20  1:20p   61.6   61.7   61.1    74   53.2  13.0    NE   2.17  20.0   NNE   57.1   61.3   56.8   65.6  30.165  0.00  0.00   850    12.18    854     7.3  0.52   7.3   0.024   0.000   71.0    55   54.0   70.0  10.13  .0743    0.000   202    7    100.0   10 
 8/13/20  1:30p   61.8   61.8   61.6    74   53.4  13.0   ENE   2.17  24.0    NE   57.4   61.5   57.1   65.8  30.167  0.00  0.00   853    12.23    854     7.3  0.52   7.3   0.022   0.000   70.9    55   53.9   69.9  10.13  .0744    0.000   204    7    100.0   10 
 8/13/20  1:40p   61.7   61.8   61.5    75   53.7  13.0    NE   2.17  22.0   ENE   57.2   61.5   57.0   65.7  30.171  0.00  0.00   853    12.23    854     7.2  0.51   7.3   0.023   0.000   70.9    55   53.9   69.9  10.13  .0744    0.000   203    7    100.0   10 
 8/13/20  1:50p   61.4   61.7   61.3    76   53.8  13.0    NE   2.17  20.0   NNE   56.9   61.2   56.7   65.4  30.168  0.00  0.00   854    12.24    856     7.2  0.51   7.2   0.025   0.000   70.8    55   53.8   69.7  10.13  .0744    0.000   203    7    100.0   10 
 8/13/20  2:00p   61.6   61.6   61.3    76   54.0  13.0   ENE   2.17  22.0    NE   57.1   61.4   56.9   65.6  30.167  0.00  0.00   848    12.16    854     7.1  0.51   7.1   0.024   0.000   70.9    55   53.9   69.9  10.13  .0744    0.020   202    7    100.0   10 
 8/13/20  2:10p   61.9   61.9   61.6    75   53.9  13.0   ENE   2.17  22.0   ENE   57.5   61.7   57.3   66.0  30.169  0.00  0.00   842    12.07    844     7.0  0.50   7.0   0.022   0.000   71.0    55   54.0   70.0  10.13  .0744    0.000   202    7    100.0   10 
 8/13/20  2:20p   62.2   62.2   61.7    76   54.5  12.0   ENE   2.00  20.0     N   58.2   62.1   58.1   67.0  30.166  0.00  0.00   836    11.98    840     6.8  0.49   6.9   0.019   0.000   71.1    55   54.1   70.1  10.13  .0743    0.000   201    7    100.0   10 
 8/13/20  2:30p   62.5   62.5   62.2    74   54.1  12.0   ENE   2.00  21.0    NE   58.6   62.3   58.4   67.3  30.168  0.00  0.00   829    11.88    833     6.7  0.48   6.8   0.017   0.000   71.0    55   54.0   70.0  10.13  .0744    0.000   203    7    100.0   10 
 8/13/20  2:40p   62.7   62.7   62.5    75   54.7  12.0   ENE   2.00  20.0   NNE   58.8   62.6   58.7   67.6  30.167  0.00  0.00   820    11.75    826     6.6  0.47   6.6   0.016   0.000   71.1    55   54.1   70.1  10.13  .0743    0.000   203    7    100.0   10 
 8/13/20  2:50p   62.4   62.7   62.4    75   54.4  13.0   ENE   2.17  23.0   NNE   58.0   62.2   57.8   66.4  30.169  0.00  0.00   811    11.63    816     6.4  0.46   6.5   0.018   0.000   71.1    55   54.1   70.1  10.13  .0743    0.000   203    7    100.0   10 
 8/13/20  3:00p   62.6   62.7   62.3    75   54.6  12.0   ENE   2.00  20.0   ENE   58.7   62.5   58.6   67.5  30.170  0.00  0.00   800    11.47    805     6.2  0.44   6.3   0.017   0.000   71.2    55   54.2   70.3  10.13  .0743    0.020   203    7    100.0   10 
 8/13/20  3:10p   62.5   62.7   62.5    75   54.5  13.0    NE   2.17  21.0   ENE   58.2   62.3   58.0   66.5  30.172  0.00  0.00   787    11.28    793     5.9  0.42   6.0   0.017   0.000   71.3    55   54.3   70.5  10.12  .0743    0.000   205    7    100.0   10 
 8/13/20  3:20p   62.2   62.5   62.2    76   54.5  14.0    NE   2.33  22.0    NE   57.4   62.1   57.3   65.5  30.171  0.00  0.00   773    11.08    780     5.7  0.41   5.8   0.019   0.000   71.4    55   54.4   70.6  10.12  .0743    0.000   204    7    100.0   10 
 8/13/20  3:30p   62.7   62.7   62.2    76   55.0  12.0   ENE   2.00  23.0    NE   58.8   62.7   58.8   67.6  30.168  0.00  0.00   757    10.85    765     5.4  0.39   5.5   0.016   0.000   71.5    55   54.5   70.8  10.12  .0743    0.000   204    7    100.0   10 
 8/13/20  3:40p   62.6   62.8   62.5    76   54.9  14.0    NE   2.33  24.0    NE   57.9   62.5   57.8   66.0  30.167  0.00  0.00   741    10.62    747     5.1  0.36   5.3   0.017   0.000   71.6    55   54.6   70.9  10.12  .0742    0.000   203    7    100.0   10 
 8/13/20  3:50p   62.7   62.8   62.5    76   55.0  14.0    NE   2.33  22.0    NE   58.0   62.7   58.0   66.2  30.164  0.00  0.00   722    10.35    731     4.8  0.34   5.0   0.016   0.000   71.7    55   54.7   71.0  10.12  .0742    0.000   204    7    100.0   10 
 8/13/20  4:00p   63.1   63.1   62.6    76   55.4  14.0   ENE   2.33  21.0   ENE   58.4   63.1   58.4   66.6  30.159  0.00  0.00   704    10.09    712     4.5  0.32   4.7   0.013   0.000   71.7    55   54.7   71.0  10.12  .0742    0.018   203    7    100.0   10 
 8/13/20  4:10p   62.9   63.1   62.8    76   55.2  13.0    NE   2.17  20.0    NE   58.6   62.9   58.6   67.0  30.161  0.00  0.00   683     9.79    693     4.2  0.30   4.4   0.015   0.000   71.8    55   54.8   71.2  10.11  .0742    0.000   203    7    100.0   10 
 8/13/20  4:20p   62.7   63.0   62.7    76   55.0  13.0    NE   2.17  25.0     E   58.4   62.7   58.4   66.7  30.162  0.00  0.00   664     9.52    673     3.9  0.28   4.1   0.016   0.000   71.8    56   55.3   71.3  10.31  .0742    0.000   203    7    100.0   10 
 8/13/20  4:30p   62.9   63.1   62.7    76   55.2  13.0   ENE   2.17  20.0   NNE   58.6   62.9   58.6   66.9  30.161  0.00  0.00   641     9.19    652     3.6  0.26   3.8   0.015   0.000   71.9    56   55.3   71.4  10.31  .0742    0.000   204    7    100.0   10 
 8/13/20  4:40p   63.0   63.0   62.9    76   55.3  12.0   ENE   2.00  19.0   NNE   59.2   63.0   59.2   67.7  30.159  0.00  0.00   617     8.84    628     3.3  0.24   3.5   0.014   0.000   72.0    56   55.4   71.6  10.31  .0741    0.000   203    7    100.0   10 
 8/13/20  4:50p   63.3   63.3   63.0    75   55.2  12.0   ENE   2.00  21.0   ENE   59.5   63.3   59.5   68.0  30.159  0.00  0.00   594     8.52    605     3.0  0.21   3.1   0.012   0.000   72.1    56   55.5   71.7  10.31  .0741    0.000   203    7    100.0   10 
 8/13/20  5:00p   63.2   63.4   63.1    74   54.8  14.0    NE   2.33  22.0   ENE   58.5   63.1   58.4   66.2  30.160  0.00  0.00   569     8.16    578     2.7  0.19   2.9   0.012   0.000   72.2    56   55.6   71.9  10.31  .0741    0.016   205    7    100.0   10 
 8/13/20  5:10p   63.1   63.3   63.0    74   54.7  13.0    NE   2.17  23.0   ENE   58.8   63.0   58.7   66.6  30.161  0.00  0.00   544     7.80    555     2.4  0.17   2.6   0.013   0.000   72.3    56   55.7   72.0  10.30  .0741    0.000   202    7    100.0   10 
 8/13/20  5:20p   63.2   63.3   63.1    74   54.8  13.0    NE   2.17  21.0    NE   58.9   63.1   58.8   66.6  30.158  0.00  0.00   516     7.40    527     2.2  0.16   2.3   0.012   0.000   72.5    56   55.9   72.3  10.30  .0740    0.000   203    7    100.0   10 
 8/13/20  5:30p   62.9   63.2   62.8    74   54.5  13.0    NE   2.17  22.0    NE   58.6   62.7   58.4   66.1  30.157  0.00  0.00   488     7.00    497     1.9  0.14   2.1   0.015   0.000   72.5    57   56.4   72.4  10.45  .0740    0.000   203    7    100.0   10 
 8/13/20  5:40p   63.1   63.2   63.0    73   54.3  13.0    NE   2.17  22.0   NNE   58.8   62.9   58.6   66.2  30.154  0.00  0.00   462     6.62    475     1.7  0.12   1.8   0.013   0.000   72.2    54   54.6   71.7   9.91  .0741    0.000   203    7    100.0   10 
 8/13/20  5:50p   62.7   63.1   62.6    75   54.7  14.0    NE   2.33  21.0     E   58.0   62.6   57.9   65.2  30.158  0.00  0.00   434     6.22    446     1.5  0.11   1.6   0.016   0.000   71.8    54   54.3   71.1   9.91  .0742    0.000   203    7    100.0   10 
 8/13/20  6:00p   62.9   62.9   62.8    74   54.5  12.0    NE   2.00  21.0   NNE   59.1   62.7   58.9   66.5  30.156  0.00  0.00   406     5.82    418     1.3  0.09   1.3   0.015   0.000   71.6    54   54.1   70.8   9.92  .0742    0.013   203    7    100.0   10 
 8/13/20  6:10p   62.3   62.8   62.2    76   54.6  12.0    NE   2.00  19.0     N   58.4   62.2   58.3   65.8  30.156  0.00  0.00   378     5.42    392     1.1  0.08   1.2   0.019   0.000   71.4    55   54.4   70.6  10.12  .0743    0.000   204    7    100.0   10 
 8/13/20  6:20p   62.0   62.3   62.0    76   54.3  12.0    NE   2.00  21.0    NE   58.0   61.9   57.9   65.0  30.159  0.00  0.00   347     4.97    360     0.9  0.06   1.0   0.021   0.000   71.3    55   54.3   70.5  10.12  .0743    0.000   203    7    100.0   10 
 8/13/20  6:30p   61.7   62.0   61.6    77   54.4  12.0    NE   2.00  23.0   ENE   57.7   61.6   57.6   64.4  30.153  0.00  0.00   319     4.57    330     0.8  0.06   0.8   0.023   0.000   71.1    55   54.1   70.1  10.13  .0743    0.000   204    7    100.0   10 
 8/13/20  6:40p   61.5   61.7   61.5    78   54.6  12.0    NE   2.00  22.0   ENE   57.5   61.5   57.5   64.1  30.152  0.00  0.00   291     4.17    304     0.6  0.04   0.7   0.024   0.000   70.9    55   53.9   69.9  10.13  .0743    0.000   202    7    100.0   10 
 8/13/20  6:50p   61.3   61.6   61.3    77   54.0  12.0   ENE   2.00  21.0   NNE   57.2   61.2   57.1   63.0  30.149  0.00  0.00   260     3.73    274     0.5  0.04   0.5   0.026   0.000   70.7    55   53.7   69.6  10.14  .0744    0.000   204    7    100.0   10 
 8/13/20  7:00p   60.5   61.3   60.5    78   53.6  11.0    NE   1.83  17.0   NNE   56.9   60.3   56.7   62.0  30.150  0.00  0.00   226     3.24    243     0.0  0.00   0.0   0.031   0.000   70.6    55   53.6   69.5  10.14  .0744    0.009   204    7    100.0   10 
 8/13/20  7:10p   60.2   60.5   60.2    79   53.7  11.0    NE   1.83  20.0   ENE   56.5   60.1   56.4   60.9  30.147  0.00  0.00   195     2.80    206     0.0  0.00   0.0   0.033   0.000   70.4    55   53.5   69.2  10.14  .0744    0.000   202    7    100.0   10 
 8/13/20  7:20p   59.9   60.3   59.9    79   53.4  11.0    NE   1.83  17.0   NNE   56.2   59.7   56.0   59.6  30.147  0.00  0.00   163     2.34    178     0.0  0.00   0.0   0.035   0.000   70.3    55   53.4   69.1  10.14  .0744    0.000   201    7    100.0   10 
 8/13/20  7:30p   59.1   60.0   59.0    81   53.3  12.0    NE   2.00  21.0   NNE   54.7   58.9   54.5   56.9  30.149  0.00  0.00   128     1.83    142     0.0  0.00   0.0   0.041   0.000   70.3    56   53.9   69.2  10.34  .0744    0.000   201    7    100.0   10 
 8/13/20  7:40p   58.4   59.0   58.4    82   52.9  11.0    NE   1.83  18.0    NE   54.5   58.3   54.4   53.6  30.149  0.00  0.00    94     1.35    111     0.0  0.00   0.0   0.046   0.000   70.4    56   54.0   69.3  10.34  .0744    0.000   201    7    100.0   10 
 8/13/20  7:50p   57.8   58.4   57.8    82   52.3  10.0   ENE   1.67  16.0   ENE   54.4   57.6   54.2   52.8  30.148  0.00  0.00    64     0.92     76     0.0  0.00   0.0   0.050   0.000   70.6    55   53.6   69.5  10.14  .0744    0.000   202    7    100.0   10 
 8/13/20  8:00p   56.8   57.8   56.8    84   52.0  10.0    NE   1.67  17.0     N   53.3   56.7   53.2   51.4  30.150  0.00  0.00    40     0.57     49     0.0  0.00   0.0   0.057   0.000   70.7    55   53.7   69.6  10.14  .0744    0.004   202    7    100.0   10 
 8/13/20  8:10p   56.4   56.8   56.4    85   51.9   8.0   ENE   1.33  15.0   NNE   54.2   56.3   54.1   51.7  30.152  0.00  0.00    23     0.33     30     0.0  0.00   0.0   0.060   0.000   70.7    55   53.7   69.6  10.14  .0744    0.000   205    7    100.0   10 
 8/13/20  8:20p   56.3   56.4   56.2    85   51.8   8.0   ENE   1.33  14.0     E   54.1   56.2   54.0   51.3  30.154  0.00  0.00    11     0.16     16     0.0  0.00   0.0   0.060   0.000   70.8    55   53.8   69.7  10.13  .0744    0.000   204    7    100.0   10 
 8/13/20  8:30p   56.0   56.3   56.0    85   51.6   8.0   ENE   1.33  13.0   NNE   53.7   55.9   53.6   50.9  30.153  0.00  0.00     3     0.04      7     0.0  0.00   0.0   0.063   0.000   70.8    55   53.8   69.7  10.13  .0743    0.000   204    7    100.0   10 
 8/13/20  8:40p   55.4   56.0   55.4    86   51.3   7.0   ENE   1.17  13.0   NNE   53.7   55.3   53.6   50.6  30.156  0.00  0.00     0     0.00      0     0.0  0.00   0.0   0.067   0.000   70.8    55   53.8   69.7  10.13  .0744    0.000   203    7    100.0   10 
 8/13/20  8:50p   55.2   55.5   55.2    86   51.1   5.0   ENE   0.83  10.0    NE   54.3   55.1   54.2   51.2  30.158  0.00  0.00     0     0.00      0     0.0  0.00   0.0   0.068   0.000   70.7    55   53.7   69.6  10.14  .0744    0.000   201    7    100.0   10 
 8/13/20  9:00p   55.0   55.2   55.0    86   50.9   4.0    NE   0.67   7.0    NE   54.6   54.9   54.5   51.4  30.163  0.00  0.00     0     0.00      0     0.0  0.00   0.0   0.069   0.000   70.8    56   54.3   69.8  10.33  .0744    0.001   204    7    100.0   10 
 8/13/20  9:10p   54.8   55.0   54.8    87   51.0   3.0   ENE   0.50   6.0   ENE   54.8   54.8   54.8   51.8  30.163  0.00  0.00     0     0.00      0     0.0  0.00   0.0   0.071   0.000   70.8    56   54.3   69.8  10.33  .0744    0.000   203    7    100.0   10 
 8/13/20  9:20p   54.6   54.8   54.6    87   50.8   2.0   ENE   0.33   4.0    NE   54.6   54.6   54.6   51.5  30.166  0.00  0.00     0     0.00      0     0.0  0.00   0.0   0.072   0.000   70.7    56   54.2   69.7  10.34  .0744    0.000   203    7    100.0   10 
 8/13/20  9:30p   54.5   54.6   54.4    87   50.7   3.0   ENE   0.50   6.0    NE   54.5   54.5   54.5   51.4  30.166  0.00  0.00     0     0.00      0     0.0  0.00   0.0   0.073   0.000   70.7    56   54.2   69.7  10.34  .0744    0.000   204    7    100.0   10 
 8/13/20  9:40p   54.2   54.5   54.2    88   50.7   4.0   ENE   0.67   8.0     N   53.7   54.2   53.7   50.6  30.165  0.00  0.00     0     0.00      0     0.0  0.00   0.0   0.075   0.000   70.7    56   54.2   69.7  10.34  .0744    0.000   200    7    100.0   10 
 8/13/20  9:50p   54.0   54.2   53.9    88   50.5   4.0   ENE   0.67   8.0   NNE   53.5   54.0   53.5   50.4  30.166  0.00  0.00     0     0.00      0     0.0  0.00   0.0   0.076   0.000   70.7    56   54.2   69.7  10.34  .0744    0.000   203    7    100.0   10 
 8/13/20 10:00p   53.7   54.0   53.7    88   50.2   3.0   ENE   0.50   6.0   NNE   53.7   53.7   53.7   50.6  30.164  0.00  0.00     0     0.00      0     0.0  0.00   0.0   0.078   0.000   70.7    56   54.2   69.7  10.34  .0744    0.001   202    7    100.0   10 
 8/13/20 10:10p   53.6   53.7   53.6    89   50.4   3.0    NE   0.50   5.0   NNE   53.6   53.7   53.7   50.6  30.164  0.00  0.00     0     0.00      0     0.0  0.00   0.0   0.079   0.000   70.7    56   54.2   69.7  10.34  .0744    0.000   204    7    100.0   10 
 8/13/20 10:20p   53.3   53.6   53.3    89   50.1   3.0   NNE   0.50   5.0    NE   53.3   53.4   53.4   50.3  30.163  0.00  0.00     0     0.00      0     0.0  0.00   0.0   0.081   0.000   70.7    56   54.2   69.7  10.34  .0744    0.000   204    7    100.0   10 
 8/13/20 10:30p   52.9   53.3   52.9    89   49.7   3.0   ENE   0.50   7.0   NNE   52.9   53.0   53.0   49.9  30.161  0.00  0.00     0     0.00      0     0.0  0.00   0.0   0.084   0.000   70.7    56   54.2   69.7  10.34  .0744    0.000   203    7    100.0   10 
 8/13/20 10:40p   52.5   52.9   52.5    89   49.4   3.0   ENE   0.50   5.0    NE   52.5   52.6   52.6   49.5  30.164  0.00  0.00     0     0.00      0     0.0  0.00   0.0   0.087   0.000   70.7    56   54.2   69.7  10.34  .0744    0.000   200    7    100.0   10 
 8/13/20 10:50p   52.3   52.6   52.3    90   49.5   2.0   ENE   0.33   4.0   ENE   52.3   52.5   52.5   49.4  30.162  0.00  0.00     0     0.00      0     0.0  0.00   0.0   0.088   0.000   70.6    56   54.1   69.6  10.34  .0744    0.000   203    7    100.0   10 
 8/13/20 11:00p   52.2   52.4   52.2    90   49.4   1.0   ENE   0.17   2.0   ENE   52.2   52.4   52.4   49.3  30.163  0.00  0.00     0     0.00      0     0.0  0.00   0.0   0.089   0.000   70.6    56   54.1   69.6  10.34  .0744    0.000   203    7    100.0   10 
 8/13/20 11:10p   51.9   52.2   51.9    90   49.1   1.0   ENE   0.17   2.0   ENE   51.9   52.1   52.1   49.0  30.164  0.00  0.00     0     0.00      0     0.0  0.00   0.0   0.091   0.000   70.6    56   54.1   69.6  10.34  .0744    0.000   203    7    100.0   10 
 8/13/20 11:20p   51.7   51.9   51.7    90   48.9   1.0   ENE   0.17   3.0   ENE   51.7   51.9   51.9   48.7  30.165  0.00  0.00     0     0.00      0     0.0  0.00   0.0   0.092   0.000   70.6    56   54.1   69.6  10.34  .0744    0.000   204    7    100.0   10 
 8/13/20 11:30p   51.5   51.7   51.5    90   48.7   1.0   ENE   0.17   3.0   ENE   51.5   51.7   51.7   48.5  30.168  0.00  0.00     0     0.00      0     0.0  0.00   0.0   0.094   0.000   70.6    56   54.1   69.6  10.34  .0744    0.000   204    7    100.0   10 
 8/13/20 11:40p   51.2   51.5   51.2    90   48.4   1.0   ENE   0.17   4.0   ENE   51.2   51.4   51.4   48.2  30.164  0.00  0.00     0     0.00      0     0.0  0.00   0.0   0.096   0.000   70.5    56   54.0   69.4  10.34  .0744    0.000   202    7    100.0   10 
 8/13/20 11:50p   51.2   51.3   51.1    91   48.7   1.0    NE   0.17   3.0    NE   51.2   51.4   51.4   48.2  30.164  0.00  0.00     0     0.00      0     0.0  0.00   0.0   0.096   0.000   70.5    56   54.0   69.4  10.34  .0744    0.000   201    7    100.0   10 
 8/14/20 12:00a   51.3   51.4   51.1    91   48.8   2.0   ENE   0.33   4.0   NNE   51.3   51.5   51.5   48.3  30.161  0.00  0.00     0     0.00      0     0.0  0.00   0.0   0.095   0.000   70.5    56   54.0   69.4  10.34  .0744    0.000   205    7    100.0   10 
 8/14/20 12:10a   51.4   51.5   51.3    91   48.9   1.0   ENE   0.17   2.0   ENE   51.4   51.6   51.6   48.4  30.158  0.00  0.00     0     0.00      0     0.0  0.00   0.0   0.094   0.000   70.5    56   54.0   69.4  10.34  .0744    0.000   201    7    100.0   10 
 8/14/20 12:20a   51.5   51.6   51.4    91   49.0   1.0   ENE   0.17   3.0   ENE   51.5   51.7   51.7   48.5  30.154  0.00  0.00     0     0.00      0     0.0  0.00   0.0   0.094   0.000   70.5    56   54.0   69.4  10.34  .0744    0.000   201    7    100.0   10 
 8/14/20 12:30a   51.2   51.5   51.2    91   48.7   1.0   ENE   0.17   3.0   ENE   51.2   51.4   51.4   48.2  30.156  0.00  0.00     0     0.00      0     0.0  0.00   0.0   0.096   0.000   70.4    56   54.0   69.3  10.34  .0744    0.000   204    7    100.0   10 
 8/14/20 12:40a   50.8   51.2   50.8    91   48.3   2.0   ENE   0.33   3.0   ENE   50.8   51.1   51.1   47.9  30.158  0.00  0.00     0     0.00      0     0.0  0.00   0.0   0.099   0.000   70.4    55   53.5   69.2  10.14  .0744    0.000   204    7    100.0   10 
 8/14/20 12:50a   50.6   50.8   50.6    91   48.1   2.0   ENE   0.33   3.0   ENE   50.6   50.9   50.9   47.7  30.154  0.00  0.00     0     0.00      0     0.0  0.00   0.0   0.100   0.000   70.4    55   53.5   69.2  10.14  .0744    0.000   202    7    100.0   10 
 8/14/20  1:00a   50.4   50.6   50.4    91   47.9   2.0   ENE   0.33   3.0   ENE   50.4   50.7   50.7   47.5  30.153  0.00  0.00     0     0.00      0     0.0  0.00   0.0   0.101   0.000   70.3    55   53.4   69.1  10.14  .0744    0.000   201    7    100.0   10 
 8/14/20  1:10a   50.7   50.7   50.4    92   48.5   2.0   ENE   0.33   4.0    NE   50.7   51.0   51.0   47.8  30.154  0.00  0.00     0     0.00      0     0.0  0.00   0.0   0.099   0.000   70.3    55   53.4   69.1  10.14  .0744    0.000   204    7    100.0   10 
 8/14/20  1:20a   51.0   51.0   50.7    92   48.8   2.0   ENE   0.33   5.0   ENE   51.0   51.3   51.3   48.1  30.154  0.00  0.00     0     0.00      0     0.0  0.00   0.0   0.097   0.000   70.2    55   53.3   69.0  10.15  .0745    0.000   203    7    100.0   10 
 8/14/20  1:30a   51.1   51.1   51.0    92   48.9   2.0   ENE   0.33   3.0   ENE   51.1   51.4   51.4   48.2  30.153  0.00  0.00     0     0.00      0     0.0  0.00   0.0   0.097   0.000   70.2    55   53.3   69.0  10.15  .0745    0.000   204    7    100.0   10 
 8/14/20  1:40a   51.0   51.1   51.0    92   48.8   2.0   ENE   0.33   4.0   ENE   51.0   51.3   51.3   48.1  30.156  0.00  0.00     0     0.00      0     0.0  0.00   0.0   0.097   0.000   70.2    55   53.3   69.0  10.15  .0745    0.000   201    7    100.0   10 
 8/14/20  1:50a   50.8   51.0   50.8    92   48.6   2.0   ENE   0.33   3.0   ENE   50.8   51.1   51.1   47.9  30.155  0.00  0.00     0     0.00      0     0.0  0.00   0.0   0.099   0.000   70.1    55   53.2   68.8  10.15  .0745    0.000   205    7    100.0   10 
 8/14/20  2:00a   50.8   50.9   50.7    92   48.6   0.0   ENE   0.00   3.0   ENE   50.8   51.1   51.1   47.9  30.153  0.00  0.00     0     0.00      0     0.0  0.00   0.0   0.099   0.000   70.1    55   53.2   68.8  10.15  .0745    0.000   203    7    100.0   10 
 8/14/20  2:10a   50.8   50.8   50.7    92   48.6   0.0   ENE   0.00   1.0   ENE   50.8   51.1   51.1   47.9  30.152  0.00  0.00     0     0.00      0     0.0  0.00   0.0   0.099   0.000   70.1    55   53.2   68.8  10.15  .0745    0.000   204    7    100.0   10 
 8/14/20  2:20a   51.1   51.1   50.7    93   49.1   0.0   ---   0.00   0.0   ---   51.1   51.4   51.4   48.3  30.151  0.00  0.00     0     0.00      0     0.0  0.00   0.0   0.097   0.000   70.0    55   53.1   68.7  10.15  .0745    0.000   201    7    100.0   10 
 8/14/20  2:30a   51.2   51.2   51.1    92   49.0   1.0   ENE   0.17   3.0   ENE   51.2   51.5   51.5   48.3  30.150  0.00  0.00     0     0.00      0     0.0  0.00   0.0   0.096   0.000   70.0    55   53.1   68.7  10.15  .0745    0.000   203    7    100.0   10 
 8/14/20  2:40a   50.6   51.1   50.6    92   48.4   2.0   ENE   0.33   5.0    NE   50.6   50.9   50.9   47.7  30.150  0.00  0.00     0     0.00      0     0.0  0.00   0.0   0.100   0.000   69.9    55   53.0   68.6  10.15  .0745    0.000   203    7    100.0   10 
 8/14/20  2:50a   50.3   50.6   50.3    92   48.1   1.0   ENE   0.17   3.0   ENE   50.3   50.7   50.7   47.5  30.149  0.00  0.00     0     0.00      0     0.0  0.00   0.0   0.102   0.000   69.9    55   53.0   68.6  10.15  .0745    0.000   204    7    100.0   10 
 8/14/20  3:00a   50.4   50.4   50.3    92   48.2   0.0   ---   0.00   0.0   ---   50.4   50.7   50.7   47.5  30.148  0.00  0.00     0     0.00      0     0.0  0.00   0.0   0.101   0.000   69.9    55   53.0   68.6  10.15  .0745    0.000   203    7    100.0   10 
 8/14/20  3:10a   50.4   50.5   50.4    93   48.5   1.0   ENE   0.17   2.0   ENE   50.4   50.8   50.8   47.6  30.148  0.00  0.00     0     0.00      0     0.0  0.00   0.0   0.101   0.000   69.9    55   53.0   68.6  10.15  .0745    0.000   205    7    100.0   10 
 8/14/20  3:20a   50.3   50.5   50.3    93   48.4   0.0   ENE   0.00   2.0   ENE   50.3   50.7   50.7   47.5  30.149  0.00  0.00     0     0.00      0     0.0  0.00   0.0   0.102   0.000   69.8    55   52.9   68.6  10.15  .0745    0.000   203    7    100.0   10 
 8/14/20  3:30a   50.4   50.4   50.3    93   48.5   1.0   ENE   0.17   2.0   ENE   50.4   50.8   50.8   47.6  30.148  0.00  0.00     0     0.00      0     0.0  0.00   0.0   0.101   0.000   69.8    55   52.9   68.6  10.15  .0745    0.000   201    7    100.0   10 
 8/14/20  3:40a   50.6   50.6   50.4    93   48.7   1.0   ENE   0.17   2.0   ENE   50.6   51.0   51.0   47.8  30.145  0.00  0.00     0     0.00      0     0.0  0.00   0.0   0.100   0.000   69.7    55   52.8   68.5  10.16  .0745    0.000   204    7    100.0   10 
 8/14/20  3:50a   50.4   50.6   50.4    93   48.5   1.0   ENE   0.17   3.0   ENE   50.4   50.8   50.8   47.6  30.145  0.00  0.00     0     0.00      0     0.0  0.00   0.0   0.101   0.000   69.7    55   52.8   68.5  10.16  .0745    0.000   205    7    100.0   10 
 8/14/20  4:00a   50.2   50.4   50.2    92   48.0   1.0   ENE   0.17   2.0   ENE   50.2   50.6   50.6   47.4  30.143  0.00  0.00     0     0.00      0     0.0  0.00   0.0   0.103   0.000   69.6    55   52.7   68.4  10.16  .0745    0.000   204    7    100.0   10 
 8/14/20  4:10a   50.0   50.2   50.0    93   48.1   2.0   ENE   0.33   4.0   ENE   50.0   50.4   50.4   47.2  30.141  0.00  0.00     0     0.00      0     0.0  0.00   0.0   0.104   0.000   69.6    55   52.7   68.4  10.16  .0745    0.000   203    7    100.0   10 
 8/14/20  4:20a   50.4   50.5   50.1    93   48.5   0.0   ENE   0.00   2.0   ENE   50.4   50.8   50.8   47.6  30.141  0.00  0.00     0     0.00      0     0.0  0.00   0.0   0.101   0.000   69.5    55   52.6   68.3  10.16  .0745    0.000   203    7    100.0   10 
 8/14/20  4:30a   50.3   50.4   50.3    93   48.4   1.0   ENE   0.17   4.0   ENE   50.3   50.7   50.7   47.5  30.138  0.00  0.00     0     0.00      0     0.0  0.00   0.0   0.102   0.000   69.5    55   52.6   68.3  10.16  .0745    0.000   204    7    100.0   10 
 8/14/20  4:40a   50.3   50.4   50.3    93   48.4   2.0   ENE   0.33   5.0   NNE   50.3   50.7   50.7   47.5  30.135  0.00  0.00     0     0.00      0     0.0  0.00   0.0   0.102   0.000   69.5    55   52.6   68.3  10.16  .0745    0.000   202    7    100.0   10 
 8/14/20  4:50a   50.6   50.6   50.3    93   48.7   3.0    NE   0.50   5.0    NE   50.4   51.0   50.8   47.6  30.133  0.00  0.00     0     0.00      0     0.0  0.00   0.0   0.100   0.000   69.4    55   52.5   68.3  10.16  .0745    0.000   204    7    100.0   10 
 8/14/20  5:00a   50.6   50.7   50.6    93   48.7   3.0    NE   0.50   5.0   NNE   50.4   51.0   50.8   47.6  30.132  0.00  0.00     0     0.00      0     0.0  0.00   0.0   0.100   0.000   69.4    55   52.5   68.3  10.16  .0745    0.000   205    7    100.0   10 
 8/14/20  5:10a   50.8   50.9   50.6    93   48.8   3.0    NE   0.50   5.0   NNE   50.6   51.1   50.9   47.7  30.130  0.00  0.00     0     0.00      0     0.0  0.00   0.0   0.099   0.000   69.3    55   52.4   68.2  10.16  .0746    0.000   203    7    100.0   10 
 8/14/20  5:20a   51.1   51.1   50.8    93   49.1   3.0   ENE   0.50   7.0     E   50.9   51.4   51.2   48.1  30.126  0.00  0.00     0     0.00      0     0.0  0.00   0.0   0.097   0.000   69.3    55   52.4   68.2  10.16  .0745    0.000   202    7    100.0   10 
 8/14/20  5:30a   53.2   53.2   51.1    91   50.6   3.0     E   0.50   9.0     E   53.2   53.3   53.3   50.2  30.125  0.00  0.00     0     0.00      0     0.0  0.00   0.0   0.082   0.000   69.2    55   52.3   68.1  10.17  .0746    0.000   203    7    100.0   10 
 8/14/20  5:40a   56.1   56.1   53.2    83   51.0   6.0     E   1.00  11.0   ENE   54.9   55.9   54.7   51.7  30.126  0.00  0.00     0     0.00      0     0.0  0.00   0.0   0.062   0.000   69.2    55   52.3   68.1  10.17  .0746    0.000   205    7    100.0   10 
 8/14/20  5:50a   57.2   57.2   56.2    80   51.1   6.0   ENE   1.00  10.0     E   56.2   56.9   55.9   52.9  30.125  0.00  0.00     0     0.00      0     0.0  0.00   0.0   0.054   0.000   69.2    55   52.3   68.1  10.17  .0746    0.000   200    7    100.0   10 
 8/14/20  6:00a   57.6   57.7   57.2    78   50.8   8.0     E   1.33  13.0     E   55.6   57.3   55.3   52.4  30.128  0.00  0.00     0     0.00      0     0.0  0.00   0.0   0.051   0.000   69.1    55   52.2   68.1  10.17  .0746    0.001   203    7    100.0   10 
 8/14/20  6:10a   57.4   57.6   57.3    78   50.6   6.0     E   1.00  11.0     E   56.5   57.0   56.1   53.0  30.133  0.00  0.00     0     0.00      0     0.0  0.00   0.0   0.053   0.000   69.1    55   52.2   68.1  10.17  .0746    0.000   203    7    100.0   10 
 8/14/20  6:20a   56.1   57.5   56.1    79   49.7   7.0   ENE   1.17  11.0   ENE   54.5   55.7   54.1   51.0  30.135  0.00  0.00     2     0.03      5     0.0  0.00   0.0   0.062   0.000   69.0    55   52.2   68.0  10.17  .0746    0.000   205    7    100.0   10 
 8/14/20  6:30a   53.7   56.0   53.7    84   49.0   6.0   ENE   1.00  12.0     N   52.0   53.6   51.9   48.9  30.141  0.00  0.00     8     0.11     11     0.0  0.00   0.0   0.078   0.000   68.9    55   52.1   67.9  10.17  .0747    0.000   200    7    100.0   10 
 8/14/20  6:40a   52.9   53.7   52.9    86   48.8   3.0   ENE   0.50   9.0    NE   52.9   52.9   52.9   50.0  30.140  0.00  0.00    12     0.17     14     0.0  0.00   0.0   0.084   0.000   68.9    55   52.1   67.9  10.17  .0746    0.000   203    7    100.0   10 
 8/14/20  6:50a   52.4   52.9   52.4    87   48.6   2.0    NE   0.33   4.0    NE   52.4   52.4   52.4   49.6  30.139  0.00  0.00    17     0.24     19     0.0  0.00   0.0   0.087   0.000   68.8    55   52.0   67.8  10.17  .0747    0.000   200    7    100.0   10 
 8/14/20  7:00a   52.0   52.4   52.0    88   48.6   2.0    NE   0.33   5.0    NE   52.0   52.1   52.1   51.0  30.137  0.00  0.00    20     0.29     23     0.0  0.00   0.0   0.090   0.000   68.8    55   52.0   67.8  10.17  .0747    0.001   203    7    100.0   10 
 8/14/20  7:10a   52.5   52.5   51.9    89   49.4   2.0   ENE   0.33   9.0   ESE   52.5   52.6   52.6   51.7  30.136  0.00  0.00    24     0.34     25     0.0  0.00   0.0   0.087   0.000   68.8    55   52.0   67.8  10.17  .0747    0.000   201    7    100.0   10 
 8/14/20  7:20a   55.3   55.3   52.5    84   50.5   4.0     E   0.67  10.0     E   55.0   55.2   54.9   54.1  30.134  0.00  0.00    27     0.39     28     0.0  0.00   0.0   0.067   0.000   68.8    55   52.0   67.8  10.17  .0747    0.000   203    7    100.0   10 
 8/14/20  7:30a   58.2   58.2   55.4    77   51.0   5.0     E   0.83  10.0     E   57.8   57.8   57.4   56.7  30.134  0.00  0.00    29     0.42     30     0.0  0.00   0.0   0.047   0.000   68.8    55   52.0   67.8  10.17  .0747    0.000   204    7    100.0   10 
 8/14/20  7:40a   57.5   58.7   57.5    77   50.3   5.0    NE   0.83   9.0    NE   57.0   57.1   56.6   55.9  30.134  0.00  0.00    32     0.46     33     0.0  0.00   0.0   0.052   0.000   68.8    55   52.0   67.8  10.17  .0747    0.000   202    7    100.0   10 
 8/14/20  7:50a   54.5   57.5   54.5    82   49.1   4.0    NE   0.67   8.0   NNE   54.1   54.3   53.9   53.2  30.136  0.00  0.00    34     0.49     35     0.0  0.00   0.0   0.073   0.000   68.9    55   52.1   67.9  10.17  .0746    0.000   202    7    100.0   10 
 8/14/20  8:00a   53.6   54.5   53.6    86   49.5   5.0   ENE   0.83   9.0   NNE   52.4   53.5   52.3   56.9  30.135  0.00  0.00   175     2.51    221     0.3  0.02   0.5   0.079   0.000   68.9    55   52.1   67.9  10.17  .0746    0.002   203    7    100.0   10 
 8/14/20  8:10a   54.3   54.3   53.6    87   50.5   5.0   ENE   0.83   9.0   NNE   53.3   54.3   53.3   59.7  30.135  0.00  0.00   238     3.41    253     0.6  0.04   0.6   0.074   0.000   69.0    55   52.2   68.0  10.17  .0746    0.000   203    7    100.0   10 
 8/14/20  8:20a   55.2   55.2   54.3    86   51.1   6.0   ENE   1.00  12.0     N   53.8   55.1   53.7   60.8  30.134  0.00  0.00   267     3.83    279     0.7  0.05   0.8   0.068   0.000   69.0    55   52.2   68.0  10.17  .0746    0.000   199    7    100.0   10 
 8/14/20  8:30a   55.3   55.3   55.2    85   50.9   7.0    NE   1.17  13.0    NE   53.6   55.2   53.5   60.8  30.135  0.00  0.00   294     4.21    308     0.9  0.06   1.0   0.067   0.000   69.0    55   52.2   68.0  10.17  .0746    0.000   204    7    100.0   10 
 8/14/20  8:40a   55.6   55.6   55.3    85   51.2   6.0   ENE   1.00  10.0   NNE   54.3   55.5   54.2   62.2  30.138  0.00  0.00   324     4.64    338     1.1  0.08   1.1   0.065   0.000   69.1    55   52.2   68.1  10.17  .0746    0.000   203    7    100.0   10 
 8/14/20  8:50a   56.4   56.4   55.6    84   51.6   6.0   NNE   1.00  11.0   NNE   55.3   56.3   55.2   63.6  30.140  0.00  0.00   352     5.05    366     1.2  0.09   1.3   0.060   0.000   69.0    55   52.2   68.0  10.17  .0746    0.000   203    7    100.0   10 
 8/14/20  9:00a   57.0   57.0   56.3    83   51.9   5.0   ENE   0.83   9.0    NE   56.4   56.8   56.2   65.0  30.139  0.00  0.00   383     5.49    396     1.4  0.10   1.5   0.056   0.000   69.1    55   52.2   68.1  10.17  .0746    0.007   204    7    100.0   10 
 8/14/20  9:10a   56.6   57.2   56.6    81   50.8   7.0   NNE   1.17  12.0   NNE   55.1   56.3   54.8   63.7  30.142  0.00  0.00   412     5.91    424     1.6  0.11   1.7   0.058   0.000   69.1    55   52.2   68.1  10.17  .0746    0.000   203    7    100.0   10 
 8/14/20  9:20a   56.2   56.6   56.2    82   50.8   7.0   ENE   1.17  13.0   NNE   54.6   56.0   54.4   63.5  30.144  0.00  0.00   439     6.29    452     1.9  0.14   2.0   0.061   0.000   69.1    55   52.2   68.1  10.17  .0746    0.000   204    7    100.0   10 
 8/14/20  9:30a   55.9   56.2   55.7    83   50.8   7.0   NNE   1.17  13.0   NNE   54.3   55.7   54.1   63.5  30.143  0.00  0.00   467     6.69    480     2.1  0.15   2.2   0.063   0.000   69.1    55   52.2   68.1  10.17  .0746    0.000   201    7    100.0   10 
 8/14/20  9:40a   57.3   57.3   56.0    83   52.2   5.0    NE   0.83  10.0    NE   56.8   57.1   56.6   66.5  30.142  0.00  0.00   495     7.10    506     2.3  0.16   2.5   0.053   0.000   69.2    55   52.3   68.1  10.17  .0746    0.000   202    7    100.0   10 
 8/14/20  9:50a   58.8   58.8   57.4    80   52.6   5.0   NNE   0.83   9.0    NE   58.6   58.6   58.4   68.5  30.141  0.00  0.00   523     7.50    534     2.6  0.19   2.8   0.043   0.000   69.2    55   52.3   68.1  10.17  .0746    0.000   202    7    100.0   10 
 8/14/20 10:00a   58.9   59.1   58.8    77   51.7   7.0   NNE   1.17  12.0   NNE   57.9   58.5   57.5   67.5  30.139  0.00  0.00   550     7.88    563     2.9  0.21   3.1   0.042   0.000   69.2    55   52.3   68.1  10.17  .0746    0.010   204    7    100.0   10 
 8/14/20 10:10a   58.1   58.9   58.1    78   51.3   8.0   NNE   1.33  14.0   NNE   56.2   57.8   55.9   65.6  30.138  0.00  0.00   574     8.23    585     3.2  0.23   3.3   0.048   0.000   69.3    55   52.4   68.2  10.16  .0746    0.000   205    7    100.0   10 
 8/14/20 10:20a   58.7   58.7   58.1    77   51.5   9.0    NE   1.50  16.0    NE   56.1   58.3   55.7   65.2  30.136  0.00  0.00   599     8.59    610     3.5  0.25   3.6   0.044   0.000   69.4    55   52.5   68.3  10.16  .0746    0.000   204    7    100.0   10 
 8/14/20 10:30a   61.0   61.0   58.8    75   53.0   9.0    NE   1.50  15.0   NNE   58.9   60.7   58.6   68.3  30.138  0.00  0.00   623     8.93    633     3.8  0.27   3.9   0.028   0.000   69.5    55   52.6   68.3  10.16  .0745    0.000   203    7    100.0   10 
 8/14/20 10:40a   60.4   61.5   60.4    73   51.7  12.0   NNE   2.00  19.0   NNE   56.2   59.9   55.7   64.4  30.143  0.00  0.00   646     9.26    656     4.1  0.29   4.2   0.032   0.000   69.5    55   52.6   68.3  10.16  .0746    0.000   201    7    100.0   10 
 8/14/20 10:50a   60.7   60.7   59.9    73   52.0  10.0    NE   1.67  18.0    NE   57.8   60.3   57.4   66.7  30.141  0.00  0.00   668     9.58    677     4.4  0.31   4.5   0.030   0.000   69.6    55   52.7   68.4  10.16  .0745    0.000   204    7    100.0   10 
 8/14/20 11:00a   61.4   61.4   60.7    71   51.9  11.0   NNE   1.83  19.0     E   57.9   60.9   57.4   66.5  30.139  0.00  0.00   689     9.88    700     4.7  0.34   4.8   0.025   0.000   69.7    55   52.8   68.5  10.16  .0745    0.015   204    7    100.0   10 
 8/14/20 11:10a   62.4   62.5   61.5    70   52.5  12.0    NE   2.00  19.0    NE   58.5   62.0   58.1   67.0  30.139  0.00  0.00   709    10.16    717     5.0  0.36   5.1   0.018   0.000   69.7    55   52.8   68.5  10.16  .0745    0.000   204    7    100.0   10 
 8/14/20 11:20a   61.8   62.3   61.7    71   52.3  12.0    NE   2.00  19.0     E   57.8   61.3   57.3   66.2  30.137  0.00  0.00   729    10.45    737     5.3  0.38   5.4   0.022   0.000   69.8    55   52.9   68.6  10.15  .0745    0.000   205    7    100.0   10 
 8/14/20 11:30a   63.5   63.5   61.8    68   52.7  11.0    NE   1.83  21.0    NE   60.4   63.1   60.0   69.3  30.136  0.00  0.00   747    10.71    756     5.6  0.40   5.7   0.010   0.000   69.8    55   52.9   68.6  10.15  .0745    0.000   201    7    100.0   10 
 8/14/20 11:40a   60.7   63.6   60.7    70   50.9  12.0    NE   2.00  19.0     N   56.6   60.1   56.0   64.9  30.138  0.00  0.00   763    10.94    770     5.8  0.41   5.9   0.030   0.000   69.7    55   52.8   68.5  10.16  .0745    0.000   203    7    100.0   10 
 8/14/20 11:50a   59.8   60.8   59.8    70   50.0  13.0   NNE   2.17  21.0    NE   55.1   59.2   54.5   63.2  30.136  0.00  0.00   778    11.15    784     6.0  0.43   6.1   0.036   0.000   69.7    55   52.8   68.5  10.16  .0745    0.000   204    7    100.0   10 
 8/14/20 12:00p   59.4   59.8   59.4    70   49.6  13.0    NE   2.17  22.0   NNE   54.6   58.7   53.9   62.6  30.139  0.00  0.00   791    11.34    798     6.2  0.44   6.3   0.039   0.000   69.8    55   52.9   68.6  10.15  .0745    0.019   202    7    100.0   10 
 8/14/20 12:10p   59.7   59.7   59.4    73   51.0  14.0   NNE   2.33  22.0   ENE   54.6   59.2   54.1   62.6  30.137  0.00  0.00   805    11.54    810     6.4  0.46   6.5   0.037   0.000   69.9    55   53.0   68.6  10.15  .0745    0.000   204    7    100.0   10 
 8/14/20 12:20p   60.2   60.3   59.6    75   52.2  15.0   NNE   2.50  22.0   ENE   54.7   59.8   54.3   62.5  30.133  0.00  0.00   817    11.71    821     6.6  0.47   6.7   0.033   0.000   70.0    56   53.6   68.8  10.35  .0744    0.000   201    7    100.0   10 
 8/14/20 12:30p   60.0   60.3   60.0    76   52.4  16.0   NNE   2.67  25.0     N   54.2   59.7   53.9   61.9  30.129  0.00  0.00   826    11.84    831     6.7  0.48   6.8   0.035   0.000   70.1    56   53.7   68.9  10.35  .0744    0.000   202    7    100.0   10 
 8/14/20 12:40p   60.3   60.3   59.8    78   53.4  16.0    NE   2.67  26.0     N   54.6   60.1   54.4   62.4  30.127  0.00  0.00   835    11.97    838     6.9  0.49   6.9   0.033   0.000   70.2    56   53.8   69.1  10.35  .0744    0.000   204    7    100.0   10 
 8/14/20 12:50p   60.9   61.0   60.3    77   53.6  15.0    NE   2.50  25.0     N   55.6   60.7   55.4   63.7  30.127  0.00  0.00   842    12.07    846     7.0  0.50   7.0   0.028   0.000   70.3    56   53.9   69.2  10.34  .0744    0.000   203    7    100.0   10 
 8/14/20  1:00p   60.6   60.9   60.6    77   53.3  16.0    NE   2.67  25.0   NNE   54.9   60.4   54.7   62.7  30.128  0.00  0.00   847    12.14    851     7.0  0.50   7.1   0.031   0.000   70.4    56   54.0   69.3  10.34  .0743    0.020   203    7    100.0   10 
 8/14/20  1:10p   60.7   60.7   60.5    78   53.8  17.0    NE   2.83  29.0   NNE   54.7   60.6   54.6   62.3  30.124  0.00  0.00   853    12.23    854     7.1  0.51   7.1   0.030   0.000   70.4    56   54.0   69.3  10.34  .0743    0.000   203    7    100.0   10 
 8/14/20  1:20p   61.0   61.0   60.7    78   54.1  17.0   NNE   2.83  29.0   NNE   55.1   60.9   55.0   62.8  30.120  0.00  0.00   854    12.24    856     7.1  0.51   7.2   0.028   0.000   70.5    56   54.0   69.4  10.34  .0743    0.000   204    7    100.0   10 
 8/14/20  1:30p   61.0   61.1   60.9    78   54.1  17.0   NNE   2.83  24.0   NNE   55.1   60.9   55.0   62.7  30.115  0.00  0.00   855    12.26    856     7.1  0.51   7.2   0.028   0.000   70.6    56   54.1   69.6  10.34  .0743    0.000   203    7    100.0   10 
 8/14/20  1:40p   61.4   61.4   61.0    77   54.1  16.0   NNE   2.67  29.0   NNE   55.8   61.3   55.7   63.7  30.118  0.00  0.00   856    12.27    858     7.1  0.51   7.1   0.025   0.000   70.7    56   54.2   69.7  10.34  .0743    0.000   200    7    100.0   10 
 8/14/20  1:50p   61.3   61.4   61.2    78   54.4  17.0    NE   2.83  28.0    NE   55.4   61.2   55.3   63.0  30.117  0.00  0.00   853    12.23    854     7.1  0.51   7.1   0.026   0.000   70.7    55   53.7   69.6  10.14  .0743    0.000   203    7    100.0   10 
 8/14/20  2:00p   61.5   61.5   61.2    78   54.6  17.0    NE   2.83  24.0   NNE   55.7   61.5   55.7   63.4  30.116  0.00  0.00   849    12.17    851     7.0  0.50   7.0   0.024   0.000   70.8    55   53.8   69.7  10.13  .0743    0.021   204    7    100.0   10 
 8/14/20  2:10p   61.7   61.7   61.5    77   54.4  16.0    NE   2.67  24.0    NE   56.2   61.6   56.1   64.0  30.114  0.00  0.00   845    12.11    849     6.9  0.49   6.9   0.023   0.000   70.8    55   53.8   69.7  10.13  .0743    0.000   202    7    100.0   10 
 8/14/20  2:20p   61.9   61.9   61.7    78   55.0  16.0    NE   2.67  23.0    NE   56.4   61.9   56.4   64.3  30.113  0.00  0.00   839    12.03    842     6.7  0.48   6.8   0.022   0.000   70.9    55   53.9   69.9  10.13  .0742    0.000   204    7    100.0   10 
 8/14/20  2:30p   62.2   62.2   61.8    77   54.9  17.0    NE   2.83  28.0   NNE   56.4   62.2   56.4   64.0  30.109  0.00  0.00   832    11.93    835     6.6  0.47   6.7   0.019   0.000   71.0    55   54.0   70.0  10.13  .0742    0.000   202    7    100.0   10 
 8/14/20  2:40p   61.5   62.3   61.5    77   54.2  16.0    NE   2.67  27.0     N   56.0   61.4   55.9   63.7  30.106  0.00  0.00   822    11.78    826     6.4  0.46   6.5   0.024   0.000   71.0    55   54.0   70.0  10.13  .0742    0.000   204    7    100.0   10 
 8/14/20  2:50p   61.5   61.5   61.1    79   54.9  17.0    NE   2.83  25.0   NNE   55.7   61.5   55.7   63.3  30.104  0.00  0.00   812    11.64    817     6.2  0.44   6.3   0.024   0.000   71.1    55   54.1   70.1  10.13  .0742    0.000   204    7    100.0   10 
 8/14/20  3:00p   61.6   61.6   61.2    79   55.0  17.0    NE   2.83  25.0     N   55.8   61.6   55.8   63.4  30.099  0.00  0.00   800    11.47    807     6.0  0.43   6.1   0.024   0.000   71.1    55   54.1   70.1  10.13  .0742    0.020   204    7    100.0   10 
Email: AdamSPAM@StormwatchersRetreat.com (To send me email remove the word 'SPAM' from my email address.)